sensor_id;sensor_type;location;lat;lon;timestamp;pressure;altitude;pressure_sealevel;temperature;humidity
53514;BME280;39768;54.148;12.174;2024-02-04T00:02:11;101332.28;;;4.08;60.39
53514;BME280;39768;54.148;12.174;2024-02-04T00:06:15;101327.63;;;4.24;57.15
53514;BME280;39768;54.148;12.174;2024-02-04T00:10:17;101325.53;;;4.46;59.10
53514;BME280;39768;54.148;12.174;2024-02-04T00:14:20;101319.25;;;4.98;55.82
53514;BME280;39768;54.148;12.174;2024-02-04T00:18:21;101316.44;;;5.07;56.88
53514;BME280;39768;54.148;12.174;2024-02-04T00:22:23;101333.31;;;4.58;57.13
53514;BME280;39768;54.148;12.174;2024-02-04T00:26:25;101314.03;;;4.41;58.97
53514;BME280;39768;54.148;12.174;2024-02-04T00:30:26;101318.41;;;4.96;56.69
53514;BME280;39768;54.148;12.174;2024-02-04T00:34:28;101330.69;;;5.54;53.39
53514;BME280;39768;54.148;12.174;2024-02-04T00:38:30;101324.97;;;5.26;55.02
53514;BME280;39768;54.148;12.174;2024-02-04T00:42:31;101315.50;;;4.60;56.25
53514;BME280;39768;54.148;12.174;2024-02-04T00:46:33;101304.47;;;4.80;55.47
53514;BME280;39768;54.148;12.174;2024-02-04T00:50:34;101301.72;;;4.34;59.56
53514;BME280;39768;54.148;12.174;2024-02-04T00:54:36;101303.06;;;5.08;56.67
53514;BME280;39768;54.148;12.174;2024-02-04T00:58:38;101307.88;;;4.90;56.77
53514;BME280;39768;54.148;12.174;2024-02-04T01:02:40;101300.81;;;4.86;56.91
53514;BME280;39768;54.148;12.174;2024-02-04T01:06:42;101308.34;;;4.64;56.75
53514;BME280;39768;54.148;12.174;2024-02-04T01:11:00;101310.81;;;4.74;55.13
53514;BME280;39768;54.148;12.174;2024-02-04T01:15:02;101300.59;;;4.49;57.79
53514;BME280;39768;54.148;12.174;2024-02-04T01:19:06;101292.72;;;4.92;56.25
53514;BME280;39768;54.148;12.174;2024-02-04T01:23:08;101301.91;;;5.22;55.25
53514;BME280;39768;54.148;12.174;2024-02-04T01:27:10;101289.66;;;5.10;55.94
53514;BME280;39768;54.148;12.174;2024-02-04T01:31:11;101278.22;;;5.05;56.41
53514;BME280;39768;54.148;12.174;2024-02-04T01:35:13;101288.06;;;5.01;56.20
53514;BME280;39768;54.148;12.174;2024-02-04T01:39:17;101281.75;;;5.07;56.35
53514;BME280;39768;54.148;12.174;2024-02-04T01:43:18;101284.72;;;5.35;52.92
53514;BME280;39768;54.148;12.174;2024-02-04T01:47:22;101284.09;;;4.76;56.79
53514;BME280;39768;54.148;12.174;2024-02-04T01:51:24;101261.81;;;4.79;55.62
53514;BME280;39768;54.148;12.174;2024-02-04T01:55:26;101275.22;;;4.75;57.21
53514;BME280;39768;54.148;12.174;2024-02-04T01:59:29;101264.97;;;4.99;54.38
53514;BME280;39768;54.148;12.174;2024-02-04T02:03:32;101287.78;;;5.15;54.12
53514;BME280;39768;54.148;12.174;2024-02-04T02:07:33;101266.44;;;5.15;55.59
53514;BME280;39768;54.148;12.174;2024-02-04T02:11:43;101260.16;;;5.61;53.72
53514;BME280;39768;54.148;12.174;2024-02-04T02:16:01;101235.13;;;5.23;54.19
53514;BME280;39768;54.148;12.174;2024-02-04T02:20:12;101229.31;;;5.03;54.77
53514;BME280;39768;54.148;12.174;2024-02-04T02:24:30;101234.44;;;4.67;56.31
53514;BME280;39768;54.148;12.174;2024-02-04T02:28:32;101224.22;;;4.91;56.50
53514;BME280;39768;54.148;12.174;2024-02-04T02:32:34;101218.72;;;3.98;60.66
53514;BME280;39768;54.148;12.174;2024-02-04T02:36:46;101230.44;;;4.44;60.04
53514;BME280;39768;54.148;12.174;2024-02-04T02:40:54;101217.25;;;3.78;62.19
53514;BME280;39768;54.148;12.174;2024-02-04T02:45:00;101220.31;;;4.64;59.85
53514;BME280;39768;54.148;12.174;2024-02-04T02:49:03;101226.41;;;4.69;59.22
53514;BME280;39768;54.148;12.174;2024-02-04T02:53:05;101216.94;;;4.53;60.63
53514;BME280;39768;54.148;12.174;2024-02-04T02:57:07;101218.56;;;5.06;58.57
53514;BME280;39768;54.148;12.174;2024-02-04T03:01:09;101213.13;;;5.10;57.23
53514;BME280;39768;54.148;12.174;2024-02-04T03:05:12;101211.56;;;5.43;54.76
53514;BME280;39768;54.148;12.174;2024-02-04T03:09:14;101217.06;;;4.93;56.97
53514;BME280;39768;54.148;12.174;2024-02-04T03:13:15;101213.91;;;5.57;56.20
53514;BME280;39768;54.148;12.174;2024-02-04T03:17:17;101210.56;;;5.49;55.54
53514;BME280;39768;54.148;12.174;2024-02-04T03:21:25;101199.19;;;4.96;56.39
53514;BME280;39768;54.148;12.174;2024-02-04T03:25:27;101193.72;;;5.45;55.59
53514;BME280;39768;54.148;12.174;2024-02-04T03:29:31;101192.56;;;5.14;56.01
53514;BME280;39768;54.148;12.174;2024-02-04T03:33:33;101187.69;;;5.34;55.38
53514;BME280;39768;54.148;12.174;2024-02-04T03:37:35;101188.09;;;5.95;54.19
53514;BME280;39768;54.148;12.174;2024-02-04T03:41:37;101175.84;;;5.07;55.79
53514;BME280;39768;54.148;12.174;2024-02-04T03:45:38;101161.31;;;5.21;55.90
53514;BME280;39768;54.148;12.174;2024-02-04T03:49:41;101153.06;;;5.30;56.23
53514;BME280;39768;54.148;12.174;2024-02-04T03:53:43;101148.06;;;4.73;58.64
53514;BME280;39768;54.148;12.174;2024-02-04T03:57:45;101143.84;;;5.04;58.22
53514;BME280;39768;54.148;12.174;2024-02-04T04:01:48;101170.56;;;5.04;57.94
53514;BME280;39768;54.148;12.174;2024-02-04T04:05:50;101150.72;;;5.16;57.59
53514;BME280;39768;54.148;12.174;2024-02-04T04:09:52;101151.31;;;5.29;57.34
53514;BME280;39768;54.148;12.174;2024-02-04T04:13:53;101151.34;;;4.87;57.89
53514;BME280;39768;54.148;12.174;2024-02-04T04:17:55;101142.06;;;5.05;57.74
53514;BME280;39768;54.148;12.174;2024-02-04T04:21:57;101140.97;;;5.13;57.33
53514;BME280;39768;54.148;12.174;2024-02-04T04:25:59;101127.94;;;4.57;59.42
53514;BME280;39768;54.148;12.174;2024-02-04T04:30:00;101127.94;;;4.57;60.03
53514;BME280;39768;54.148;12.174;2024-02-04T04:34:02;101131.88;;;5.24;58.39
53514;BME280;39768;54.148;12.174;2024-02-04T04:38:03;101115.53;;;4.54;60.20
53514;BME280;39768;54.148;12.174;2024-02-04T04:42:05;101111.38;;;5.24;57.41
53514;BME280;39768;54.148;12.174;2024-02-04T04:46:07;101101.28;;;4.55;60.32
53514;BME280;39768;54.148;12.174;2024-02-04T04:50:09;101097.94;;;4.89;58.39
53514;BME280;39768;54.148;12.174;2024-02-04T04:54:10;101089.19;;;5.59;56.21
53514;BME280;39768;54.148;12.174;2024-02-04T04:58:12;101083.81;;;4.40;59.70
53514;BME280;39768;54.148;12.174;2024-02-04T05:02:13;101076.41;;;4.96;59.17
53514;BME280;39768;54.148;12.174;2024-02-04T05:06:15;101084.13;;;4.68;59.28
53514;BME280;39768;54.148;12.174;2024-02-04T05:10:16;101093.28;;;4.97;58.44
53514;BME280;39768;54.148;12.174;2024-02-04T05:14:18;101086.31;;;4.91;58.53
53514;BME280;39768;54.148;12.174;2024-02-04T05:18:21;101092.63;;;5.26;55.85
53514;BME280;39768;54.148;12.174;2024-02-04T05:22:23;101083.97;;;4.76;58.90
53514;BME280;39768;54.148;12.174;2024-02-04T05:26:25;101088.31;;;4.37;59.87
53514;BME280;39768;54.148;12.174;2024-02-04T05:30:27;101097.78;;;5.72;56.23
53514;BME280;39768;54.148;12.174;2024-02-04T05:34:28;101087.47;;;5.92;54.90
53514;BME280;39768;54.148;12.174;2024-02-04T05:38:32;101079.16;;;5.32;55.66
53514;BME280;39768;54.148;12.174;2024-02-04T05:42:33;101086.81;;;5.08;56.06
53514;BME280;39768;54.148;12.174;2024-02-04T05:46:36;101062.75;;;4.70;58.79
53514;BME280;39768;54.148;12.174;2024-02-04T05:50:38;101070.22;;;5.70;55.51
53514;BME280;39768;54.148;12.174;2024-02-04T05:54:40;101077.78;;;5.53;54.90
53514;BME280;39768;54.148;12.174;2024-02-04T05:58:42;101058.97;;;4.80;57.12
53514;BME280;39768;54.148;12.174;2024-02-04T06:02:43;101060.47;;;4.93;58.53
53514;BME280;39768;54.148;12.174;2024-02-04T06:06:46;101053.44;;;5.26;56.64
53514;BME280;39768;54.148;12.174;2024-02-04T06:10:47;101061.03;;;5.46;54.28
53514;BME280;39768;54.148;12.174;2024-02-04T06:14:49;101050.88;;;5.60;53.80
53514;BME280;39768;54.148;12.174;2024-02-04T06:18:50;101059.19;;;5.48;54.03
53514;BME280;39768;54.148;12.174;2024-02-04T06:22:52;101044.38;;;5.70;53.13
53514;BME280;39768;54.148;12.174;2024-02-04T06:26:54;101043.47;;;5.34;55.12
53514;BME280;39768;54.148;12.174;2024-02-04T06:30:56;101030.19;;;5.31;55.57
53514;BME280;39768;54.148;12.174;2024-02-04T06:34:58;101044.88;;;5.12;56.90
53514;BME280;39768;54.148;12.174;2024-02-04T06:38:59;101058.31;;;5.48;55.77
53514;BME280;39768;54.148;12.174;2024-02-04T06:43:01;101036.78;;;4.78;57.56
53514;BME280;39768;54.148;12.174;2024-02-04T06:47:03;101038.59;;;5.15;56.93
53514;BME280;39768;54.148;12.174;2024-02-04T06:51:04;101044.47;;;5.67;54.22
53514;BME280;39768;54.148;12.174;2024-02-04T06:55:06;101042.69;;;4.92;56.45
53514;BME280;39768;54.148;12.174;2024-02-04T06:59:08;101043.66;;;4.90;56.73
53514;BME280;39768;54.148;12.174;2024-02-04T07:03:10;101039.59;;;5.49;54.85
53514;BME280;39768;54.148;12.174;2024-02-04T07:07:11;101035.94;;;5.53;55.15
53514;BME280;39768;54.148;12.174;2024-02-04T07:11:13;101023.69;;;5.06;57.07
53514;BME280;39768;54.148;12.174;2024-02-04T07:15:14;101027.00;;;5.16;58.46
53514;BME280;39768;54.148;12.174;2024-02-04T07:19:16;101019.94;;;5.13;55.96
53514;BME280;39768;54.148;12.174;2024-02-04T07:23:21;100997.66;;;4.79;57.95
53514;BME280;39768;54.148;12.174;2024-02-04T07:27:23;101009.75;;;5.66;55.76
53514;BME280;39768;54.148;12.174;2024-02-04T07:31:25;101003.53;;;4.93;57.93
53514;BME280;39768;54.148;12.174;2024-02-04T07:35:26;101015.53;;;5.49;57.64
53514;BME280;39768;54.148;12.174;2024-02-04T07:39:28;100992.13;;;5.23;57.14
53514;BME280;39768;54.148;12.174;2024-02-04T07:43:32;100970.44;;;5.00;58.84
53514;BME280;39768;54.148;12.174;2024-02-04T07:47:34;100971.06;;;5.11;57.34
53514;BME280;39768;54.148;12.174;2024-02-04T07:51:37;100959.06;;;5.27;58.36
53514;BME280;39768;54.148;12.174;2024-02-04T07:55:39;100954.84;;;4.82;57.13
53514;BME280;39768;54.148;12.174;2024-02-04T07:59:40;100970.38;;;5.38;55.17
53514;BME280;39768;54.148;12.174;2024-02-04T08:03:43;100971.75;;;5.19;57.32
53514;BME280;39768;54.148;12.174;2024-02-04T08:07:45;100964.84;;;5.80;54.70
53514;BME280;39768;54.148;12.174;2024-02-04T08:11:47;100960.63;;;5.37;55.41
53514;BME280;39768;54.148;12.174;2024-02-04T08:15:48;100952.38;;;5.46;55.06
53514;BME280;39768;54.148;12.174;2024-02-04T08:19:50;100966.41;;;5.19;55.39
53514;BME280;39768;54.148;12.174;2024-02-04T08:23:52;100954.25;;;4.70;57.70
53514;BME280;39768;54.148;12.174;2024-02-04T08:27:54;100954.78;;;4.85;56.93
53514;BME280;39768;54.148;12.174;2024-02-04T08:31:59;100949.06;;;5.01;57.96
53514;BME280;39768;54.148;12.174;2024-02-04T08:36:01;100963.16;;;5.08;57.92
53514;BME280;39768;54.148;12.174;2024-02-04T08:40:03;100964.09;;;5.05;58.05
53514;BME280;39768;54.148;12.174;2024-02-04T08:44:05;100947.16;;;5.42;56.57
53514;BME280;39768;54.148;12.174;2024-02-04T08:48:06;100954.88;;;5.54;55.79
53514;BME280;39768;54.148;12.174;2024-02-04T08:52:08;100947.56;;;4.90;59.07
53514;BME280;39768;54.148;12.174;2024-02-04T08:56:10;100952.28;;;5.14;58.39
53514;BME280;39768;54.148;12.174;2024-02-04T09:00:12;100937.19;;;4.37;61.69
53514;BME280;39768;54.148;12.174;2024-02-04T09:04:13;100936.03;;;4.88;59.33
53514;BME280;39768;54.148;12.174;2024-02-04T09:08:15;100916.03;;;4.68;61.50
53514;BME280;39768;54.148;12.174;2024-02-04T09:12:17;100910.53;;;4.76;60.48
53514;BME280;39768;54.148;12.174;2024-02-04T09:16:18;100904.41;;;5.08;59.12
53514;BME280;39768;54.148;12.174;2024-02-04T09:20:20;100907.69;;;5.19;59.31
53514;BME280;39768;54.148;12.174;2024-02-04T09:24:22;100889.69;;;4.92;59.37
53514;BME280;39768;54.148;12.174;2024-02-04T09:28:24;100900.44;;;4.89;58.90
53514;BME280;39768;54.148;12.174;2024-02-04T09:32:26;100899.78;;;5.15;59.33
53514;BME280;39768;54.148;12.174;2024-02-04T09:36:28;100887.34;;;4.80;60.34
53514;BME280;39768;54.148;12.174;2024-02-04T09:40:29;100881.88;;;4.84;61.41
53514;BME280;39768;54.148;12.174;2024-02-04T09:44:32;100899.16;;;4.68;61.02
53514;BME280;39768;54.148;12.174;2024-02-04T09:48:36;100899.34;;;4.60;60.33
53514;BME280;39768;54.148;12.174;2024-02-04T09:52:40;100899.81;;;4.79;59.94
53514;BME280;39768;54.148;12.174;2024-02-04T09:56:45;100888.59;;;4.65;60.40
53514;BME280;39768;54.148;12.174;2024-02-04T10:00:47;100898.84;;;4.80;60.25
53514;BME280;39768;54.148;12.174;2024-02-04T10:04:49;100910.50;;;4.77;59.01
53514;BME280;39768;54.148;12.174;2024-02-04T10:08:52;100902.84;;;4.64;60.47
53514;BME280;39768;54.148;12.174;2024-02-04T10:12:54;100910.91;;;4.96;59.92
53514;BME280;39768;54.148;12.174;2024-02-04T10:16:56;100931.06;;;4.72;61.47
53514;BME280;39768;54.148;12.174;2024-02-04T10:20:57;100923.72;;;5.53;57.31
53514;BME280;39768;54.148;12.174;2024-02-04T10:25:06;100921.75;;;4.90;60.47
53514;BME280;39768;54.148;12.174;2024-02-04T10:29:09;100905.44;;;4.27;60.56
53514;BME280;39768;54.148;12.174;2024-02-04T10:33:10;100918.22;;;4.90;59.15
53514;BME280;39768;54.148;12.174;2024-02-04T10:37:12;100910.63;;;4.71;59.58
53514;BME280;39768;54.148;12.174;2024-02-04T10:41:17;100907.78;;;4.42;61.18
53514;BME280;39768;54.148;12.174;2024-02-04T10:45:21;100906.22;;;4.70;62.00
53514;BME280;39768;54.148;12.174;2024-02-04T10:49:26;100904.13;;;4.83;60.27
53514;BME280;39768;54.148;12.174;2024-02-04T10:53:28;100902.38;;;4.82;60.64
53514;BME280;39768;54.148;12.174;2024-02-04T10:57:29;100898.09;;;5.10;60.68
53514;BME280;39768;54.148;12.174;2024-02-04T11:01:32;100885.59;;;4.79;60.90
53514;BME280;39768;54.148;12.174;2024-02-04T11:05:35;100887.03;;;4.92;61.32
53514;BME280;39768;54.148;12.174;2024-02-04T11:09:37;100889.69;;;5.26;60.42
53514;BME280;39768;54.148;12.174;2024-02-04T11:13:43;100871.75;;;4.97;59.58
53514;BME280;39768;54.148;12.174;2024-02-04T11:18:02;100867.94;;;5.07;61.71
53514;BME280;39768;54.148;12.174;2024-02-04T11:22:36;100859.44;;;4.93;61.85
53514;BME280;39768;54.148;12.174;2024-02-04T11:26:43;100851.28;;;4.97;60.69
53514;BME280;39768;54.148;12.174;2024-02-04T11:30:45;100856.38;;;6.02;56.36
53514;BME280;39768;54.148;12.174;2024-02-04T11:34:47;100853.25;;;4.91;61.61
53514;BME280;39768;54.148;12.174;2024-02-04T11:38:49;100854.38;;;5.15;60.34
53514;BME280;39768;54.148;12.174;2024-02-04T11:42:51;100861.13;;;5.93;56.33
53514;BME280;39768;54.148;12.174;2024-02-04T11:46:54;100849.44;;;4.99;58.67
53514;BME280;39768;54.148;12.174;2024-02-04T11:50:58;100848.78;;;6.16;54.08
53514;BME280;39768;54.148;12.174;2024-02-04T11:55:00;100847.69;;;5.65;55.27
53514;BME280;39768;54.148;12.174;2024-02-04T11:59:02;100849.75;;;6.14;53.65
53514;BME280;39768;54.148;12.174;2024-02-04T12:03:06;100858.53;;;6.19;53.57
53514;BME280;39768;54.148;12.174;2024-02-04T12:07:08;100855.59;;;6.28;53.44
53514;BME280;39768;54.148;12.174;2024-02-04T12:11:10;100856.09;;;6.69;51.27
53514;BME280;39768;54.148;12.174;2024-02-04T12:15:12;100838.38;;;5.49;53.94
53514;BME280;39768;54.148;12.174;2024-02-04T12:19:13;100836.22;;;6.20;53.23
53514;BME280;39768;54.148;12.174;2024-02-04T12:23:16;100824.84;;;6.13;51.57
53514;BME280;39768;54.148;12.174;2024-02-04T12:27:19;100826.69;;;6.11;52.49
53514;BME280;39768;54.148;12.174;2024-02-04T12:31:22;100828.44;;;6.40;50.34
53514;BME280;39768;54.148;12.174;2024-02-04T12:35:24;100826.88;;;6.05;53.28
53514;BME280;39768;54.148;12.174;2024-02-04T12:39:26;100820.16;;;6.20;52.50
53514;BME280;39768;54.148;12.174;2024-02-04T12:43:27;100820.47;;;6.67;51.01
53514;BME280;39768;54.148;12.174;2024-02-04T12:47:29;100818.44;;;6.45;51.29
53514;BME280;39768;54.148;12.174;2024-02-04T12:51:32;100818.75;;;6.91;49.55
53514;BME280;39768;54.148;12.174;2024-02-04T12:55:36;100816.88;;;6.12;52.36
53514;BME280;39768;54.148;12.174;2024-02-04T12:59:38;100813.94;;;5.92;53.04
53514;BME280;39768;54.148;12.174;2024-02-04T13:03:40;100805.75;;;6.52;51.54
53514;BME280;39768;54.148;12.174;2024-02-04T13:07:42;100803.09;;;6.52;53.30
53514;BME280;39768;54.148;12.174;2024-02-04T13:11:44;100795.91;;;6.26;51.10
53514;BME280;39768;54.148;12.174;2024-02-04T13:15:45;100800.41;;;7.05;49.75
53514;BME280;39768;54.148;12.174;2024-02-04T13:19:47;100791.50;;;6.25;51.27
53514;BME280;39768;54.148;12.174;2024-02-04T13:23:50;100803.91;;;6.54;51.64
53514;BME280;39768;54.148;12.174;2024-02-04T13:27:52;100792.59;;;5.90;52.77
53514;BME280;39768;54.148;12.174;2024-02-04T13:31:54;100793.09;;;5.73;54.01
53514;BME280;39768;54.148;12.174;2024-02-04T13:35:57;100782.16;;;5.82;53.94
53514;BME280;39768;54.148;12.174;2024-02-04T13:39:58;100789.81;;;5.93;54.29
53514;BME280;39768;54.148;12.174;2024-02-04T13:44:00;100773.69;;;5.36;55.85
53514;BME280;39768;54.148;12.174;2024-02-04T13:48:01;100782.50;;;5.70;54.72
53514;BME280;39768;54.148;12.174;2024-02-04T13:52:03;100796.59;;;5.75;54.42
53514;BME280;39768;54.148;12.174;2024-02-04T13:56:05;100781.06;;;5.88;53.21
53514;BME280;39768;54.148;12.174;2024-02-04T14:00:07;100785.50;;;5.60;54.10
53514;BME280;39768;54.148;12.174;2024-02-04T14:04:10;100786.97;;;5.70;53.49
53514;BME280;39768;54.148;12.174;2024-02-04T14:08:12;100799.16;;;6.08;52.88
53514;BME280;39768;54.148;12.174;2024-02-04T14:12:13;100790.47;;;5.72;54.26
53514;BME280;39768;54.148;12.174;2024-02-04T14:16:15;100791.25;;;5.75;54.28
53514;BME280;39768;54.148;12.174;2024-02-04T14:20:17;100775.75;;;5.87;53.28
53514;BME280;39768;54.148;12.174;2024-02-04T14:24:18;100786.19;;;5.35;55.35
53514;BME280;39768;54.148;12.174;2024-02-04T14:28:20;100782.16;;;6.10;53.25
53514;BME280;39768;54.148;12.174;2024-02-04T14:32:22;100791.50;;;5.97;53.79
53514;BME280;39768;54.148;12.174;2024-02-04T14:36:24;100785.53;;;5.88;54.31
53514;BME280;39768;54.148;12.174;2024-02-04T14:40:25;100792.28;;;5.99;53.01
53514;BME280;39768;54.148;12.174;2024-02-04T14:44:27;100775.56;;;5.65;54.13
53514;BME280;39768;54.148;12.174;2024-02-04T14:48:29;100777.44;;;5.29;56.50
53514;BME280;39768;54.148;12.174;2024-02-04T14:52:31;100780.69;;;6.00;54.65
53514;BME280;39768;54.148;12.174;2024-02-04T14:56:37;100783.78;;;6.14;53.50
53514;BME280;39768;54.148;12.174;2024-02-04T15:00:38;100780.63;;;6.02;54.30
53514;BME280;39768;54.148;12.174;2024-02-04T15:04:40;100778.16;;;5.96;54.17
53514;BME280;39768;54.148;12.174;2024-02-04T15:08:42;100773.34;;;5.50;55.35
53514;BME280;39768;54.148;12.174;2024-02-04T15:12:44;100764.16;;;6.15;53.43
53514;BME280;39768;54.148;12.174;2024-02-04T15:16:46;100756.97;;;5.90;54.30
53514;BME280;39768;54.148;12.174;2024-02-04T15:20:48;100762.47;;;6.13;53.26
53514;BME280;39768;54.148;12.174;2024-02-04T15:24:50;100773.66;;;6.26;52.18
53514;BME280;39768;54.148;12.174;2024-02-04T15:28:52;100768.63;;;5.87;53.60
53514;BME280;39768;54.148;12.174;2024-02-04T15:32:54;100770.84;;;6.29;52.79
53514;BME280;39768;54.148;12.174;2024-02-04T15:36:56;100757.25;;;5.80;53.97
53514;BME280;39768;54.148;12.174;2024-02-04T15:40:58;100772.41;;;5.80;53.47
53514;BME280;39768;54.148;12.174;2024-02-04T15:45:00;100777.13;;;5.39;54.70
53514;BME280;39768;54.148;12.174;2024-02-04T15:49:02;100772.72;;;5.40;56.29
53514;BME280;39768;54.148;12.174;2024-02-04T15:53:07;100770.38;;;5.59;55.05
53514;BME280;39768;54.148;12.174;2024-02-04T15:57:09;100768.34;;;6.24;52.44
53514;BME280;39768;54.148;12.174;2024-02-04T16:01:14;100760.03;;;5.77;54.18
53514;BME280;39768;54.148;12.174;2024-02-04T16:05:19;100764.03;;;5.63;55.50
53514;BME280;39768;54.148;12.174;2024-02-04T16:09:21;100780.19;;;5.88;54.68
53514;BME280;39768;54.148;12.174;2024-02-04T16:13:25;100769.44;;;5.89;55.39
53514;BME280;39768;54.148;12.174;2024-02-04T16:17:32;100758.34;;;5.73;54.81
53514;BME280;39768;54.148;12.174;2024-02-04T16:21:35;100765.06;;;5.87;54.36
53514;BME280;39768;54.148;12.174;2024-02-04T16:25:41;100760.97;;;5.45;55.19
53514;BME280;39768;54.148;12.174;2024-02-04T16:30:03;100748.28;;;5.54;56.33
53514;BME280;39768;54.148;12.174;2024-02-04T16:34:25;100749.16;;;4.91;57.12
53514;BME280;39768;54.148;12.174;2024-02-04T16:38:29;100743.50;;;5.34;56.46
53514;BME280;39768;54.148;12.174;2024-02-04T16:42:31;100761.91;;;6.30;52.76
53514;BME280;39768;54.148;12.174;2024-02-04T16:46:40;100756.69;;;5.69;54.19
53514;BME280;39768;54.148;12.174;2024-02-04T16:50:42;100745.69;;;6.08;53.70
53514;BME280;39768;54.148;12.174;2024-02-04T16:54:43;100737.91;;;5.43;56.55
53514;BME280;39768;54.148;12.174;2024-02-04T16:58:45;100729.44;;;5.27;56.67
53514;BME280;39768;54.148;12.174;2024-02-04T17:02:47;100730.38;;;5.85;54.44
53514;BME280;39768;54.148;12.174;2024-02-04T17:06:49;100748.28;;;5.83;54.58
53514;BME280;39768;54.148;12.174;2024-02-04T17:10:51;100742.44;;;5.98;53.59
53514;BME280;39768;54.148;12.174;2024-02-04T17:14:53;100744.97;;;6.29;53.07
53514;BME280;39768;54.148;12.174;2024-02-04T17:23:38;100742.59;;;5.94;55.84
53514;BME280;39768;54.148;12.174;2024-02-04T17:27:41;100736.72;;;6.10;54.74
53514;BME280;39768;54.148;12.174;2024-02-04T17:31:43;100721.38;;;5.88;55.07
53514;BME280;39768;54.148;12.174;2024-02-04T17:35:45;100724.50;;;5.74;57.70
53514;BME280;39768;54.148;12.174;2024-02-04T17:39:49;100731.88;;;6.22;55.51
53514;BME280;39768;54.148;12.174;2024-02-04T17:43:51;100718.09;;;6.07;55.70
53514;BME280;39768;54.148;12.174;2024-02-04T17:47:53;100733.63;;;6.23;54.05
53514;BME280;39768;54.148;12.174;2024-02-04T17:51:54;100725.47;;;5.99;56.71
53514;BME280;39768;54.148;12.174;2024-02-04T17:55:56;100733.34;;;6.04;57.22
53514;BME280;39768;54.148;12.174;2024-02-04T17:59:58;100731.00;;;6.21;56.57
53514;BME280;39768;54.148;12.174;2024-02-04T18:03:59;100712.22;;;5.96;57.81
53514;BME280;39768;54.148;12.174;2024-02-04T18:08:02;100715.16;;;6.41;55.09
53514;BME280;39768;54.148;12.174;2024-02-04T18:12:05;100714.06;;;6.21;56.75
53514;BME280;39768;54.148;12.174;2024-02-04T18:16:07;100697.19;;;5.92;57.65
53514;BME280;39768;54.148;12.174;2024-02-04T18:20:11;100708.66;;;5.96;58.01
53514;BME280;39768;54.148;12.174;2024-02-04T18:24:12;100715.31;;;6.10;58.38
53514;BME280;39768;54.148;12.174;2024-02-04T18:28:14;100712.53;;;5.58;58.83
53514;BME280;39768;54.148;12.174;2024-02-04T18:32:16;100714.00;;;5.96;56.55
53514;BME280;39768;54.148;12.174;2024-02-04T18:36:18;100709.13;;;6.08;58.36
53514;BME280;39768;54.148;12.174;2024-02-04T18:40:29;100702.78;;;6.39;56.46
53514;BME280;39768;54.148;12.174;2024-02-04T18:44:31;100688.13;;;6.49;55.66
53514;BME280;39768;54.148;12.174;2024-02-04T18:48:32;100680.84;;;6.54;55.70
53514;BME280;39768;54.148;12.174;2024-02-04T18:52:34;100667.28;;;5.81;58.77
53514;BME280;39768;54.148;12.174;2024-02-04T18:56:41;100661.59;;;5.34;61.81
53514;BME280;39768;54.148;12.174;2024-02-04T19:00:43;100657.69;;;6.28;58.26
53514;BME280;39768;54.148;12.174;2024-02-04T19:04:45;100654.06;;;6.03;59.90
53514;BME280;39768;54.148;12.174;2024-02-04T19:08:47;100653.91;;;5.53;60.82
53514;BME280;39768;54.148;12.174;2024-02-04T19:12:49;100658.00;;;5.35;61.70
53514;BME280;39768;54.148;12.174;2024-02-04T19:16:51;100657.47;;;6.59;56.62
53514;BME280;39768;54.148;12.174;2024-02-04T19:20:53;100655.53;;;5.85;58.79
53514;BME280;39768;54.148;12.174;2024-02-04T19:24:55;100646.16;;;5.72;60.16
53514;BME280;39768;54.148;12.174;2024-02-04T19:28:57;100654.19;;;5.72;58.57
53514;BME280;39768;54.148;12.174;2024-02-04T19:32:59;100658.00;;;5.65;60.44
53514;BME280;39768;54.148;12.174;2024-02-04T19:37:01;100652.00;;;5.57;60.33
53514;BME280;39768;54.148;12.174;2024-02-04T19:41:02;100658.22;;;5.57;59.92
53514;BME280;39768;54.148;12.174;2024-02-04T19:45:05;100653.75;;;5.58;59.55
53514;BME280;39768;54.148;12.174;2024-02-04T19:49:08;100647.59;;;5.84;61.27
53514;BME280;39768;54.148;12.174;2024-02-04T19:53:09;100639.72;;;5.51;61.49
53514;BME280;39768;54.148;12.174;2024-02-04T19:57:11;100631.84;;;6.01;60.06
53514;BME280;39768;54.148;12.174;2024-02-04T20:01:15;100632.53;;;6.07;59.23
53514;BME280;39768;54.148;12.174;2024-02-04T20:05:17;100614.75;;;5.80;60.29
53514;BME280;39768;54.148;12.174;2024-02-04T20:09:20;100603.16;;;5.53;58.18
53514;BME280;39768;54.148;12.174;2024-02-04T20:13:22;100600.28;;;5.86;57.57
53514;BME280;39768;54.148;12.174;2024-02-04T20:17:24;100597.66;;;5.84;59.00
53514;BME280;39768;54.148;12.174;2024-02-04T20:21:28;100590.69;;;5.24;61.15
53514;BME280;39768;54.148;12.174;2024-02-04T20:25:30;100577.09;;;5.86;58.46
53514;BME280;39768;54.148;12.174;2024-02-04T20:29:31;100584.28;;;5.84;60.15
53514;BME280;39768;54.148;12.174;2024-02-04T20:33:33;100576.22;;;5.86;60.24
53514;BME280;39768;54.148;12.174;2024-02-04T20:37:34;100568.38;;;5.55;59.93
53514;BME280;39768;54.148;12.174;2024-02-04T20:41:36;100577.97;;;5.87;58.46
53514;BME280;39768;54.148;12.174;2024-02-04T20:45:39;100592.16;;;6.15;56.47
53514;BME280;39768;54.148;12.174;2024-02-04T20:49:41;100587.47;;;6.22;57.11
53514;BME280;39768;54.148;12.174;2024-02-04T20:53:42;100577.47;;;5.75;59.48
53514;BME280;39768;54.148;12.174;2024-02-04T20:57:44;100579.28;;;5.75;58.81
53514;BME280;39768;54.148;12.174;2024-02-04T21:01:47;100566.28;;;5.91;58.00
53514;BME280;39768;54.148;12.174;2024-02-04T21:05:49;100559.31;;;5.31;60.93
53514;BME280;39768;54.148;12.174;2024-02-04T21:09:51;100558.97;;;5.96;56.87
53514;BME280;39768;54.148;12.174;2024-02-04T21:13:52;100560.66;;;5.72;59.85